Time;durP1;ratioP1;P1;durP2;ratioP2;P2;SDS_P1;SDS_P2;PMS_P1;PMS_P2;Temp;Humidity;BMP_temperature;BMP_pressure;BME280_temperature;BME280_humidity;BME280_pressure;Samples;Min_cycle;Max_cycle;Signal;HPM_P1;HPM_P2
2021/03/25 00:01:54;;;;;;;11.77;2.38;;;6.60;99.80;;;;;;4989886;28;20050;-94
2021/03/25 00:04:21;;;;;;;9.85;1.70;;;6.60;99.90;;;;;;4991393;28;20031;-94
2021/03/25 00:06:54;;;;;;;11.65;1.40;;;6.60;99.90;;;;;;4986473;28;20023;-93
2021/03/25 00:09:34;;;;;;;7.57;1.30;;;6.60;99.90;;;;;;4989664;28;20019;-94
2021/03/25 00:12:00;;;;;;;9.57;1.52;;;6.70;99.90;;;;;;4990546;28;20484;-93
2021/03/25 00:14:27;;;;;;;10.63;2.35;;;6.70;99.90;;;;;;4990949;28;20029;-94
2021/03/25 00:16:52;;;;;;;5.88;1.35;;;6.70;99.90;;;;;;4991655;28;20035;-94
2021/03/25 00:19:19;;;;;;;8.82;1.42;;;6.70;99.90;;;;;;4990434;28;20090;-94
2021/03/25 00:21:45;;;;;;;5.93;1.33;;;6.70;99.90;;;;;;4987124;28;20500;-95
2021/03/25 00:24:15;;;;;;;10.07;1.70;;;6.70;99.90;;;;;;4987054;28;20023;-93
2021/03/25 00:26:42;;;;;;;15.03;2.27;;;6.70;99.90;;;;;;4985562;28;20089;-95
2021/03/25 00:29:14;;;;;;;3.97;1.05;;;6.70;99.90;;;;;;4988744;28;20278;-93
2021/03/25 00:31:41;;;;;;;9.55;1.75;;;6.70;99.90;;;;;;4985029;28;20027;-94
2021/03/25 00:34:08;;;;;;;10.82;1.50;;;6.70;99.90;;;;;;4979521;28;20030;-94
2021/03/25 00:36:33;;;;;;;11.38;1.80;;;6.70;99.90;;;;;;4980766;28;20023;-94
2021/03/25 00:38:59;;;;;;;15.80;2.25;;;6.70;99.90;;;;;;4991273;28;20034;-94
2021/03/25 00:41:27;;;;;;;8.57;1.50;;;6.70;99.90;;;;;;4988222;28;20038;-95
2021/03/25 00:43:53;;;;;;;7.72;1.45;;;6.80;99.90;;;;;;4983401;28;20034;-95
2021/03/25 00:46:20;;;;;;;19.17;3.20;;;6.80;99.90;;;;;;4978836;28;20057;-95
2021/03/25 00:48:45;;;;;;;10.25;1.67;;;6.80;99.90;;;;;;4980276;28;20077;-93
2021/03/25 00:51:11;;;;;;;18.23;1.55;;;6.80;99.90;;;;;;4981351;28;20071;-94
2021/03/25 00:53:38;;;;;;;7.95;1.60;;;6.80;99.90;;;;;;4980027;28;20553;-94
2021/03/25 00:56:05;;;;;;;11.98;1.60;;;6.80;99.90;;;;;;4979179;28;20031;-93
2021/03/25 00:58:32;;;;;;;6.28;1.55;;;6.80;99.90;;;;;;4980984;28;20027;-93
2021/03/25 01:00:59;;;;;;;10.98;1.83;;;6.80;99.90;;;;;;4978888;28;20027;-91
2021/03/25 01:03:27;;;;;;;8.52;1.40;;;6.80;99.90;;;;;;4977308;28;20115;-92
2021/03/25 01:05:54;;;;;;;7.70;1.40;;;6.80;99.90;;;;;;4980504;28;20018;-94
2021/03/25 01:08:20;;;;;;;13.07;1.48;;;6.80;99.90;;;;;;4978724;28;20092;-94
2021/03/25 01:10:57;;;;;;;9.65;1.60;;;6.80;99.90;;;;;;4976779;28;20042;-93
2021/03/25 01:13:32;;;;;;;3.17;1.80;;;6.80;99.90;;;;;;4977197;28;20035;-92
2021/03/25 01:15:59;;;;;;;7.43;1.42;;;6.80;99.90;;;;;;4978781;28;20362;-92
2021/03/25 01:18:26;;;;;;;7.15;1.67;;;6.80;99.90;;;;;;4979210;28;20022;-93
2021/03/25 01:20:52;;;;;;;8.35;2.13;;;6.80;99.90;;;;;;4982056;28;20053;-94
2021/03/25 01:23:18;;;;;;;9.50;2.25;;;6.80;99.90;;;;;;4978848;28;20037;-93
2021/03/25 01:25:44;;;;;;;7.93;1.42;;;6.80;99.90;;;;;;4978413;28;20215;-94
2021/03/25 01:28:12;;;;;;;11.93;1.67;;;6.80;99.90;;;;;;4963181;29;20057;-93
2021/03/25 01:30:42;;;;;;;9.68;1.80;;;6.90;99.90;;;;;;4964109;29;20015;-93
2021/03/25 01:33:10;;;;;;;11.52;2.20;;;6.90;99.90;;;;;;4961104;29;20106;-94
2021/03/25 01:35:38;;;;;;;8.00;1.52;;;6.90;99.90;;;;;;4961483;28;20027;-93
2021/03/25 01:38:09;;;;;;;7.00;1.35;;;6.90;99.90;;;;;;4960923;29;20023;-94
2021/03/25 01:40:37;;;;;;;10.48;1.65;;;6.90;99.90;;;;;;4958933;29;20568;-92
2021/03/25 01:43:07;;;;;;;13.35;1.80;;;6.90;99.90;;;;;;4961142;29;20035;-93
2021/03/25 01:45:36;;;;;;;9.93;1.67;;;6.90;99.90;;;;;;4961576;29;20039;-93
2021/03/25 01:48:02;;;;;;;10.50;1.63;;;6.90;99.90;;;;;;4961542;29;20492;-93
2021/03/25 01:50:28;;;;;;;11.10;1.95;;;6.90;99.90;;;;;;4962802;29;20020;-93
2021/03/25 01:53:20;;;;;;;10.57;2.08;;;6.80;99.90;;;;;;4963295;29;20030;-92
2021/03/25 01:56:07;;;;;;;7.72;1.55;;;6.80;99.90;;;;;;4961171;29;20059;-94
2021/03/25 01:58:58;;;;;;;14.88;2.42;;;6.80;99.90;;;;;;4959648;29;20019;-93
2021/03/25 02:01:34;;;;;;;6.07;1.42;;;6.80;99.90;;;;;;4952802;28;21205;-93
2021/03/25 02:04:30;;;;;;;8.13;1.98;;;6.80;99.90;;;;;;4958371;29;20066;-94
2021/03/25 02:07:03;;;;;;;12.43;2.10;;;6.80;99.90;;;;;;4959149;29;20027;-92
2021/03/25 02:09:56;;;;;;;9.48;2.08;;;6.80;99.90;;;;;;4958079;29;20488;-93
2021/03/25 02:12:46;;;;;;;9.95;1.70;;;6.80;99.90;;;;;;4958720;29;20035;-94
2021/03/25 02:15:33;;;;;;;10.20;1.65;;;6.80;99.90;;;;;;4962370;29;20027;-94
2021/03/25 02:18:09;;;;;;;8.02;1.90;;;6.80;99.90;;;;;;4964688;29;20030;-93
2021/03/25 02:20:51;;;;;;;6.95;1.80;;;6.80;99.90;;;;;;4964427;29;20030;-94
2021/03/25 02:23:47;;;;;;;5.53;1.67;;;6.80;99.90;;;;;;4958440;29;20055;-92
2021/03/25 02:26:34;;;;;;;13.90;2.40;;;6.90;99.90;;;;;;4984466;28;20035;-90
2021/03/25 02:29:18;;;;;;;12.77;2.13;;;6.90;99.90;;;;;;4997809;28;20106;-92
2021/03/25 02:31:51;;;;;;;17.73;3.92;;;6.90;99.90;;;;;;4997082;28;20019;-91
2021/03/25 02:34:22;;;;;;;4.18;1.60;;;6.90;99.90;;;;;;4997539;28;20119;-94
2021/03/25 02:36:56;;;;;;;9.50;1.85;;;6.90;99.90;;;;;;4992772;28;20787;-94
2021/03/25 02:39:27;;;;;;;13.13;2.20;;;6.90;99.90;;;;;;4983831;28;20039;-94
2021/03/25 02:41:56;;;;;;;9.02;2.33;;;6.90;99.90;;;;;;4983010;28;20139;-94
2021/03/25 02:44:34;;;;;;;14.43;2.33;;;6.90;99.90;;;;;;4981479;28;20070;-95
2021/03/25 02:47:08;;;;;;;12.15;3.15;;;6.90;99.90;;;;;;4980469;28;20019;-92
2021/03/25 02:49:42;;;;;;;13.77;2.42;;;6.90;99.90;;;;;;4979496;28;20026;-94
2021/03/25 02:52:17;;;;;;;6.57;1.63;;;7.00;99.90;;;;;;4978996;28;20026;-92
2021/03/25 02:54:43;;;;;;;15.50;2.03;;;6.90;99.90;;;;;;4980126;28;20050;-93
2021/03/25 02:57:21;;;;;;;13.77;2.50;;;7.00;99.90;;;;;;4980015;28;20034;-95
2021/03/25 02:59:50;;;;;;;11.57;2.30;;;7.00;99.90;;;;;;4979001;28;20069;-93
2021/03/25 03:02:24;;;;;;;11.80;2.40;;;7.00;99.90;;;;;;4981745;28;20133;-93
2021/03/25 03:04:56;;;;;;;14.65;2.28;;;6.90;99.90;;;;;;4982387;28;20476;-94
2021/03/25 03:07:30;;;;;;;9.18;2.30;;;6.90;99.90;;;;;;4980482;28;20035;-91
2021/03/25 03:10:01;;;;;;;7.88;1.70;;;6.90;99.90;;;;;;4980623;28;20031;-93
2021/03/25 03:12:34;;;;;;;11.43;2.25;;;6.90;99.90;;;;;;4977033;28;20046;-92
2021/03/25 03:15:19;;;;;;;8.07;2.03;;;7.00;99.90;;;;;;4977260;28;20066;-93
2021/03/25 03:17:58;;;;;;;8.30;2.28;;;7.00;99.90;;;;;;4976123;28;20026;-94
2021/03/25 03:20:38;;;;;;;8.65;2.00;;;7.00;99.90;;;;;;4983162;28;20105;-93
2021/03/25 03:23:04;;;;;;;7.95;1.70;;;7.00;99.90;;;;;;4985270;28;20039;-93
2021/03/25 03:25:30;;;;;;;8.75;1.83;;;7.00;99.90;;;;;;4987919;28;20073;-93
2021/03/25 03:28:08;;;;;;;5.00;1.30;;;7.00;99.90;;;;;;4983289;28;20030;-93
2021/03/25 03:30:59;;;;;;;9.25;2.10;;;7.10;99.90;;;;;;4981899;28;20030;-92
2021/03/25 03:33:36;;;;;;;10.05;1.75;;;7.10;99.90;;;;;;4998210;28;20053;-92
2021/03/25 03:36:06;;;;;;;9.50;2.08;;;7.10;99.90;;;;;;4997156;28;20109;-92
2021/03/25 03:38:38;;;;;;;10.40;2.60;;;7.10;99.90;;;;;;4981618;28;20019;-93
2021/03/25 03:41:06;;;;;;;17.73;2.42;;;7.20;99.90;;;;;;4977519;28;20472;-93
2021/03/25 03:43:35;;;;;;;12.20;1.67;;;7.10;99.90;;;;;;4978430;28;20137;-94
2021/03/25 03:46:10;;;;;;;11.25;1.90;;;7.10;99.90;;;;;;4977244;28;20046;-93
2021/03/25 03:48:42;;;;;;;12.90;1.98;;;7.10;99.90;;;;;;4977336;28;20045;-92
2021/03/25 03:51:13;;;;;;;8.98;1.80;;;7.10;99.90;;;;;;4993869;28;20046;-93
2021/03/25 03:53:39;;;;;;;7.40;1.30;;;7.10;99.90;;;;;;4976813;28;20026;-93
2021/03/25 03:56:43;;;;;;;10.15;2.35;;;7.10;99.90;;;;;;4978168;28;20034;-94
2021/03/25 03:59:24;;;;;;;10.55;2.60;;;7.10;99.90;;;;;;4978800;28;20026;-94
2021/03/25 04:01:53;;;;;;;8.77;1.85;;;7.20;99.90;;;;;;4982043;28;20043;-93
2021/03/25 04:04:27;;;;;;;12.32;3.05;;;7.20;99.90;;;;;;4980390;28;20539;-93
2021/03/25 04:07:00;;;;;;;9.02;2.13;;;7.20;99.90;;;;;;4967559;28;20057;-93
2021/03/25 04:09:52;;;;;;;21.60;4.70;;;7.20;99.90;;;;;;4998464;28;20026;-95
2021/03/25 04:12:31;;;;;;;8.13;1.75;;;7.10;99.90;;;;;;4981437;28;20050;-95
2021/03/25 04:15:27;;;;;;;12.52;2.25;;;7.20;99.90;;;;;;4982448;28;20018;-93
2021/03/25 04:18:16;;;;;;;12.93;2.53;;;7.10;99.90;;;;;;4977513;28;20045;-94
2021/03/25 04:20:46;;;;;;;3.33;1.67;;;7.20;99.90;;;;;;4982785;28;20028;-93
2021/03/25 04:23:16;;;;;;;6.88;2.47;;;7.10;99.90;;;;;;4981589;28;20033;-91
2021/03/25 04:25:49;;;;;;;8.75;1.60;;;7.10;99.90;;;;;;4980068;28;20065;-92
2021/03/25 04:28:36;;;;;;;11.20;2.00;;;7.10;99.90;;;;;;4979625;28;20081;-93
2021/03/25 04:31:04;;;;;;;10.38;1.95;;;7.10;99.90;;;;;;4977351;28;20086;-93
2021/03/25 04:33:30;;;;;;;10.98;2.67;;;7.10;99.90;;;;;;4977908;28;20041;-91
2021/03/25 04:35:57;;;;;;;10.00;1.50;;;7.10;99.90;;;;;;4979208;28;20030;-93
2021/03/25 04:38:38;;;;;;;6.22;1.70;;;7.10;99.90;;;;;;4981584;28;20023;-92
2021/03/25 04:41:04;;;;;;;11.18;1.55;;;7.10;99.90;;;;;;4979264;28;20026;-93
2021/03/25 04:43:30;;;;;;;8.32;1.52;;;7.10;99.90;;;;;;4977851;28;20026;-94
2021/03/25 04:46:07;;;;;;;8.70;1.90;;;7.10;99.90;;;;;;4975581;28;20539;-93
2021/03/25 04:48:39;;;;;;;6.80;1.70;;;7.00;99.90;;;;;;4976896;28;20031;-93
2021/03/25 04:51:16;;;;;;;12.13;1.70;;;7.10;99.90;;;;;;4979898;28;20023;-92
2021/03/25 04:53:43;;;;;;;8.27;1.40;;;7.10;99.90;;;;;;4977519;28;20065;-93
2021/03/25 04:56:16;;;;;;;4.10;1.25;;;7.10;99.90;;;;;;4961417;28;20033;-92
2021/03/25 04:58:57;;;;;;;11.38;2.25;;;7.00;99.90;;;;;;4981019;28;20073;-92
2021/03/25 05:01:31;;;;;;;5.43;1.40;;;7.00;99.90;;;;;;4979558;28;20492;-93
2021/03/25 05:04:03;;;;;;;8.38;1.58;;;7.00;99.90;;;;;;4982335;28;20372;-94
2021/03/25 05:06:53;;;;;;;6.30;1.48;;;7.00;99.90;;;;;;4979272;28;20041;-94
2021/03/25 05:09:21;;;;;;;13.07;1.73;;;7.00;99.90;;;;;;4986558;28;20015;-93
2021/03/25 05:11:48;;;;;;;7.32;1.38;;;7.10;99.90;;;;;;4990824;28;20132;-92
2021/03/25 05:14:34;;;;;;;5.20;1.23;;;7.00;99.90;;;;;;4992375;28;20061;-91
2021/03/25 05:17:21;;;;;;;10.07;2.05;;;7.00;99.90;;;;;;4997948;28;20045;-91
2021/03/25 05:20:14;;;;;;;10.38;1.88;;;7.10;99.90;;;;;;4987228;28;20535;-94
2021/03/25 05:23:06;;;;;;;12.43;1.73;;;7.10;99.90;;;;;;4959285;28;20027;-93
2021/03/25 05:25:47;;;;;;;15.02;2.00;;;7.10;99.90;;;;;;4976398;28;20054;-92
2021/03/25 05:28:22;;;;;;;12.10;1.80;;;7.00;99.90;;;;;;4977258;28;20093;-94
2021/03/25 05:30:51;;;;;;;7.47;1.40;;;7.00;99.90;;;;;;4978286;28;20027;-93
2021/03/25 05:33:23;;;;;;;9.48;1.50;;;7.00;99.90;;;;;;4986016;28;20481;-94
2021/03/25 05:35:54;;;;;;;10.95;1.63;;;7.00;99.90;;;;;;4984210;28;20025;-93
2021/03/25 05:38:21;;;;;;;14.00;1.73;;;7.00;99.90;;;;;;4988199;28;20030;-94
2021/03/25 05:41:11;;;;;;;9.77;1.60;;;7.00;99.90;;;;;;4988590;28;20500;-91
2021/03/25 05:44:07;;;;;;;9.82;1.63;;;7.00;99.90;;;;;;4987402;28;20039;-94
2021/03/25 05:46:45;;;;;;;11.13;2.42;;;7.00;99.90;;;;;;4988308;28;20022;-91
2021/03/25 05:49:29;;;;;;;8.00;1.85;;;7.00;99.90;;;;;;4990059;28;20053;-93
2021/03/25 05:52:27;;;;;;;8.27;2.30;;;6.90;99.90;;;;;;4988151;28;20031;-94
2021/03/25 05:55:25;;;;;;;11.35;2.30;;;6.90;99.90;;;;;;4989305;28;20034;-93
2021/03/25 05:58:26;;;;;;;6.63;1.70;;;6.90;99.90;;;;;;4970298;28;20033;-92
2021/03/25 06:00:54;;;;;;;11.43;2.60;;;6.90;99.90;;;;;;4997139;28;20042;-90
2021/03/25 06:03:21;;;;;;;8.15;2.22;;;6.90;99.90;;;;;;4997889;28;20043;-89
2021/03/25 06:05:54;;;;;;;6.00;1.90;;;6.90;99.90;;;;;;4997948;28;20045;-91
2021/03/25 06:08:32;;;;;;;9.38;1.40;;;6.90;99.90;;;;;;4993171;28;20019;-92
2021/03/25 06:11:32;;;;;;;9.15;1.75;;;6.90;99.90;;;;;;4990522;28;20019;-91
2021/03/25 06:14:04;;;;;;;13.48;2.13;;;6.90;99.90;;;;;;4985035;28;20011;-93
2021/03/25 06:16:42;;;;;;;7.25;1.80;;;6.90;99.90;;;;;;4992784;28;20086;-92
2021/03/25 06:19:36;;;;;;;11.15;4.40;;;7.00;99.90;;;;;;4989974;28;20034;-93
2021/03/25 06:22:33;;;;;;;5.97;1.90;;;7.00;99.90;;;;;;4987957;28;20035;-92
2021/03/25 06:25:36;;;;;;;7.38;2.88;;;7.00;99.90;;;;;;4984367;28;20058;-92
2021/03/25 06:28:26;;;;;;;10.77;1.80;;;7.00;99.90;;;;;;4988377;28;20030;-93
2021/03/25 06:31:23;;;;;;;7.88;1.73;;;6.90;99.90;;;;;;4984104;28;20085;-93
2021/03/25 06:33:58;;;;;;;7.13;1.80;;;7.00;99.90;;;;;;5000542;28;20026;-93
2021/03/25 06:36:40;;;;;;;6.75;1.70;;;7.00;99.90;;;;;;4980468;28;20037;-94
2021/03/25 06:39:09;;;;;;;8.55;1.75;;;7.00;99.90;;;;;;4997683;28;20121;-94
2021/03/25 06:41:50;;;;;;;7.57;2.10;;;7.00;99.90;;;;;;4980277;28;20152;-94
2021/03/25 06:44:21;;;;;;;15.73;1.98;;;7.10;99.90;;;;;;4985961;28;20038;-92
2021/03/25 06:46:50;;;;;;;9.00;1.45;;;7.00;99.90;;;;;;4992175;28;20485;-91
2021/03/25 06:49:23;;;;;;;10.95;1.83;;;7.00;99.90;;;;;;4984097;28;20030;-91
2021/03/25 06:51:50;;;;;;;5.28;1.35;;;7.10;99.90;;;;;;4984482;28;20109;-94
2021/03/25 06:54:26;;;;;;;11.70;1.70;;;7.10;99.90;;;;;;4980193;28;20042;-92
2021/03/25 06:56:55;;;;;;;7.18;1.40;;;7.10;99.90;;;;;;4980219;28;20027;-91
2021/03/25 06:59:35;;;;;;;7.55;1.80;;;7.10;99.90;;;;;;4978712;28;20031;-93
2021/03/25 07:02:19;;;;;;;6.55;1.70;;;7.10;99.90;;;;;;4978626;28;20042;-93
2021/03/25 07:04:48;;;;;;;10.60;1.95;;;7.20;99.90;;;;;;4978454;28;20022;-91
2021/03/25 07:07:23;;;;;;;11.52;1.73;;;7.20;99.90;;;;;;4978918;28;20030;-91
2021/03/25 07:09:50;;;;;;;10.45;2.85;;;7.20;99.90;;;;;;4979529;28;20092;-93
2021/03/25 07:12:29;;;;;;;12.32;1.80;;;7.20;99.90;;;;;;4975802;28;20472;-93
2021/03/25 07:14:55;;;;;;;6.50;1.40;;;7.20;99.90;;;;;;4977466;28;21351;-92
2021/03/25 07:17:30;;;;;;;12.13;2.08;;;7.20;99.90;;;;;;4977100;28;20053;-93
2021/03/25 07:19:56;;;;;;;10.05;1.83;;;7.20;99.90;;;;;;4977832;28;20130;-94
2021/03/25 07:22:31;;;;;;;7.63;2.63;;;7.30;99.90;;;;;;4994170;28;20057;-93
2021/03/25 07:25:19;;;;;;;9.65;2.30;;;7.20;99.90;;;;;;4976400;28;20030;-93
2021/03/25 07:27:45;;;;;;;5.70;1.83;;;7.20;99.90;;;;;;4978157;28;20054;-92
2021/03/25 07:30:16;;;;;;;10.20;1.92;;;7.30;99.90;;;;;;4976218;28;20022;-93
2021/03/25 07:32:50;;;;;;;5.53;1.65;;;7.30;99.90;;;;;;4973266;28;20030;-91
2021/03/25 07:35:37;;;;;;;8.20;2.42;;;7.40;99.90;;;;;;4977004;28;20034;-92
2021/03/25 07:38:19;;;;;;;7.80;2.00;;;7.40;99.90;;;;;;4978805;28;20030;-92
2021/03/25 07:40:45;;;;;;;10.63;2.60;;;7.50;99.90;;;;;;4962690;28;20034;-93
2021/03/25 07:43:23;;;;;;;7.95;1.98;;;7.50;99.90;;;;;;4977637;28;20068;-93
2021/03/25 07:46:16;;;;;;;8.43;2.00;;;7.50;99.90;;;;;;4976728;28;20052;-95
2021/03/25 07:48:56;;;;;;;7.80;2.17;;;7.60;99.90;;;;;;4979843;28;20026;-94
2021/03/25 07:51:22;;;;;;;8.45;2.38;;;7.60;99.90;;;;;;4981502;28;20037;-93
2021/03/25 07:54:07;;;;;;;8.85;2.20;;;7.70;99.90;;;;;;4981696;28;20038;-93
2021/03/25 07:56:34;;;;;;;12.65;2.25;;;7.80;99.90;;;;;;4979866;28;20494;-96
2021/03/25 07:59:00;;;;;;;6.85;1.90;;;7.80;99.90;;;;;;4979434;28;20491;-93
2021/03/25 08:01:26;;;;;;;10.45;2.03;;;7.90;99.90;;;;;;4980291;28;20042;-91
2021/03/25 08:03:56;;;;;;;7.43;2.20;;;8.00;99.90;;;;;;4991334;28;20026;-95
2021/03/25 08:06:38;;;;;;;11.68;2.70;;;8.10;99.90;;;;;;4979400;28;20061;-94
2021/03/25 08:09:16;;;;;;;6.85;1.77;;;8.20;99.90;;;;;;4975339;28;20029;-95
2021/03/25 08:11:58;;;;;;;10.38;3.13;;;8.30;99.90;;;;;;4980334;28;20049;-94
2021/03/25 08:14:27;;;;;;;9.95;1.90;;;8.40;99.90;;;;;;4986774;28;20037;-92
2021/03/25 08:17:30;;;;;;;10.85;2.08;;;8.40;99.90;;;;;;4984938;28;20027;-93
2021/03/25 08:20:02;;;;;;;8.80;1.95;;;8.50;99.90;;;;;;4976563;28;20554;-95
2021/03/25 08:22:46;;;;;;;9.55;2.42;;;8.60;99.90;;;;;;4983331;28;20284;-94
2021/03/25 08:25:33;;;;;;;4.18;1.38;;;8.70;99.90;;;;;;5001597;28;20183;-94
2021/03/25 08:28:14;;;;;;;5.40;1.02;;;8.70;99.90;;;;;;4980890;28;20038;-93
2021/03/25 08:30:39;;;;;;;;;;;8.80;99.90;;;;;;4983187;28;20042;-92
2021/03/25 08:33:39;;;;;;;6.65;1.85;;;8.90;99.90;;;;;;4979131;28;19910;-95
2021/03/25 08:36:14;;;;;;;7.15;1.77;;;8.90;99.90;;;;;;4985795;28;20027;-94
2021/03/25 08:38:48;;;;;;;9.02;2.10;;;9.00;99.90;;;;;;5005167;28;20040;-92
2021/03/25 08:41:17;;;;;;;12.10;1.92;;;9.10;99.90;;;;;;4990103;28;20096;-94
2021/03/25 08:43:52;;;;;;;13.38;1.95;;;9.20;99.90;;;;;;5004994;28;20034;-93
2021/03/25 08:46:35;;;;;;;5.82;2.17;;;9.20;99.90;;;;;;4985386;28;20031;-94
2021/03/25 08:49:16;;;;;;;9.15;2.58;;;9.20;99.90;;;;;;4988934;28;20089;-94
2021/03/25 08:51:44;;;;;;;12.05;1.88;;;9.20;99.90;;;;;;4990062;28;20018;-90
2021/03/25 08:54:45;;;;;;;11.88;2.05;;;9.30;99.90;;;;;;5006092;28;20030;-93
2021/03/25 08:57:19;;;;;;;7.82;1.73;;;9.40;99.90;;;;;;4996414;28;20034;-93
2021/03/25 09:00:00;;;;;;;8.50;1.83;;;9.50;99.90;;;;;;4994893;28;20087;-95
2021/03/25 09:02:51;;;;;;;11.13;2.53;;;9.60;99.90;;;;;;4993675;28;20037;-94
2021/03/25 09:05:43;;;;;;;;;;;9.70;99.90;;;;;;4986295;28;20058;-94
2021/03/25 09:08:13;;;;;;;13.20;2.38;;;9.70;99.90;;;;;;4989703;28;19973;-92
2021/03/25 09:11:01;;;;;;;6.88;1.98;;;9.80;99.90;;;;;;5008399;28;20049;-92
2021/03/25 09:13:30;;;;;;;14.77;2.30;;;10.00;99.90;;;;;;4984754;28;20030;-93
2021/03/25 09:15:58;;;;;;;6.55;2.10;;;10.00;99.90;;;;;;4981679;28;20022;-94
2021/03/25 09:18:28;;;;;;;10.77;1.75;;;10.10;99.90;;;;;;4980486;28;20022;-94
2021/03/25 09:20:57;;;;;;;8.20;1.98;;;10.20;99.90;;;;;;4981151;28;20022;-93
2021/03/25 09:23:28;;;;;;;11.35;2.25;;;10.40;99.90;;;;;;4992340;28;20019;-92
2021/03/25 09:25:54;;;;;;;7.47;1.70;;;10.50;99.90;;;;;;4995358;28;20046;-92
2021/03/25 09:28:24;;;;;;;8.40;1.90;;;10.60;99.90;;;;;;4997558;28;20048;-92
2021/03/25 09:31:08;;;;;;;11.83;2.40;;;10.70;99.90;;;;;;4995831;28;20038;-90
2021/03/25 09:33:56;;;;;;;13.07;2.45;;;10.80;99.90;;;;;;4979501;28;20054;-95
2021/03/25 09:36:25;;;;;;;11.85;2.03;;;10.90;99.90;;;;;;4978674;28;20642;-92
2021/03/25 09:39:19;;;;;;;12.07;2.50;;;11.00;99.90;;;;;;4976538;28;20030;-93
2021/03/25 09:41:47;;;;;;;10.98;2.95;;;11.00;99.90;;;;;;4976463;28;20042;-93
2021/03/25 09:44:17;;;;;;;8.90;2.05;;;11.10;99.90;;;;;;4996058;28;20022;-92
2021/03/25 09:46:53;;;;;;;9.57;3.45;;;11.10;99.90;;;;;;4984265;28;20034;-93
2021/03/25 09:49:27;;;;;;;6.65;1.58;;;11.20;99.90;;;;;;4981582;28;20019;-95
2021/03/25 09:52:12;;;;;;;8.55;1.80;;;11.30;99.90;;;;;;4981876;28;20045;-96
2021/03/25 09:54:46;;;;;;;9.65;1.70;;;11.30;99.90;;;;;;4974424;28;20089;-95
2021/03/25 09:57:36;;;;;;;8.02;2.85;;;11.30;99.90;;;;;;4974592;28;20035;-95
2021/03/25 10:00:20;;;;;;;10.40;2.03;;;11.20;99.90;;;;;;4975998;28;20018;-94
2021/03/25 10:02:51;;;;;;;11.75;1.77;;;11.30;99.90;;;;;;4959479;28;20038;-95
2021/03/25 10:05:25;;;;;;;8.75;1.63;;;11.50;99.90;;;;;;4981702;28;20046;-95
2021/03/25 10:07:56;;;;;;;11.32;1.90;;;11.60;99.40;;;;;;4977502;28;20076;-96
2021/03/25 10:10:47;;;;;;;2.58;1.30;;;11.60;98.80;;;;;;4976453;28;20043;-93
2021/03/25 10:13:16;;;;;;;9.07;1.70;;;11.80;99.00;;;;;;4972826;28;20027;-94
2021/03/25 10:15:46;;;;;;;6.57;1.75;;;11.90;98.40;;;;;;4974293;28;20043;-96
2021/03/25 10:18:32;;;;;;;6.90;1.80;;;12.00;97.60;;;;;;4972620;28;20018;-94
2021/03/25 10:21:12;;;;;;;5.47;1.77;;;12.10;97.40;;;;;;4964699;28;20038;-94
2021/03/25 10:23:50;;;;;;;7.63;1.90;;;12.20;97.00;;;;;;4976581;28;20123;-94
2021/03/25 10:26:38;;;;;;;9.35;1.60;;;12.30;96.30;;;;;;4974988;28;20047;-95
2021/03/25 10:29:10;;;;;;;10.60;1.50;;;12.40;95.60;;;;;;4976854;28;20556;-95
2021/03/25 10:31:41;;;;;;;3.65;1.50;;;12.50;94.10;;;;;;4974586;28;20015;-96
2021/03/25 10:34:28;;;;;;;4.85;1.50;;;12.60;94.10;;;;;;4983718;28;20091;-95
2021/03/25 10:36:58;;;;;;;10.27;1.65;;;12.80;93.20;;;;;;4980352;28;20476;-96
2021/03/25 10:39:36;;;;;;;6.05;1.80;;;12.90;92.70;;;;;;4983995;28;20042;-95
2021/03/25 10:42:22;;;;;;;6.28;1.67;;;13.10;92.60;;;;;;4982075;28;20309;-96
2021/03/25 10:44:48;;;;;;;6.45;1.90;;;13.20;91.40;;;;;;4979973;28;20023;-94
2021/03/25 10:47:31;;;;;;;6.53;1.70;;;13.20;90.50;;;;;;4982992;28;20755;-94
2021/03/25 10:50:00;;;;;;;5.88;1.50;;;13.20;90.40;;;;;;4978884;28;20081;-95
2021/03/25 10:52:37;;;;;;;3.42;1.52;;;13.30;90.10;;;;;;4975155;28;20030;-96
2021/03/25 10:55:26;;;;;;;7.70;1.48;;;13.30;89.40;;;;;;4976452;28;20109;-95
2021/03/25 10:57:53;;;;;;;9.20;1.80;;;13.40;89.10;;;;;;4980947;28;20031;-95
2021/03/25 11:00:22;;;;;;;7.18;1.17;;;13.60;88.20;;;;;;4982524;28;20026;-94
2021/03/25 11:02:49;;;;;;;6.85;1.25;;;13.60;85.00;;;;;;4987324;28;20050;-95
2021/03/25 11:05:24;;;;;;;4.32;1.08;;;13.50;84.50;;;;;;4988197;28;20094;-89
2021/03/25 11:08:03;;;;;;;7.25;1.88;;;13.40;84.80;;;;;;4990744;28;20031;-89
2021/03/25 11:10:30;;;;;;;5.90;1.33;;;13.30;83.90;;;;;;4993569;28;20079;-92
2021/03/25 11:13:07;;;;;;;5.55;1.25;;;13.30;84.40;;;;;;4995253;28;20050;-96
2021/03/25 11:15:38;;;;;;;4.07;1.00;;;13.30;83.40;;;;;;4991950;28;20031;-96
2021/03/25 11:18:33;;;;;;;4.35;1.08;;;13.40;83.40;;;;;;4993815;28;20031;-94
2021/03/25 11:21:00;;;;;;;3.85;1.13;;;13.50;82.70;;;;;;4994891;28;20125;-95
2021/03/25 11:23:27;;;;;;;6.80;1.23;;;13.70;81.40;;;;;;4988853;28;20015;-94
2021/03/25 11:26:06;;;;;;;3.22;0.80;;;13.90;80.90;;;;;;4989919;28;20050;-88
2021/03/25 11:28:38;;;;;;;5.18;1.13;;;14.20;80.00;;;;;;4998679;28;20039;-89
2021/03/25 11:31:29;;;;;;;3.67;1.10;;;14.30;78.50;;;;;;4999281;28;20353;-87
2021/03/25 11:33:56;;;;;;;4.85;0.75;;;14.50;77.50;;;;;;4991585;28;20054;-91
2021/03/25 11:36:43;;;;;;;6.93;1.25;;;14.60;77.30;;;;;;5000207;28;20039;-93
2021/03/25 11:39:22;;;;;;;9.55;1.50;;;14.80;77.50;;;;;;5000760;28;20023;-85
2021/03/25 11:41:52;;;;;;;5.68;1.20;;;15.10;77.10;;;;;;5000338;28;20034;-88
2021/03/25 11:44:38;;;;;;;5.47;1.20;;;15.60;77.00;;;;;;4999665;28;20037;-86
2021/03/25 11:47:30;;;;;;;4.47;1.38;;;15.90;75.20;;;;;;4998867;28;20038;-87
2021/03/25 11:49:55;;;;;;;3.63;1.10;;;16.00;73.60;;;;;;4990122;28;20042;-93
2021/03/25 11:52:21;;;;;;;3.88;1.20;;;16.10;73.00;;;;;;4997436;28;20070;-92
2021/03/25 11:54:59;;;;;;;4.05;0.95;;;16.00;71.10;;;;;;4996012;28;20018;-91
2021/03/25 11:57:34;;;;;;;3.55;1.08;;;16.00;70.80;;;;;;4988851;28;20034;-93
2021/03/25 12:00:15;;;;;;;3.53;0.90;;;16.00;68.80;;;;;;4985762;28;20019;-91
2021/03/25 12:02:45;;;;;;;4.32;0.85;;;15.90;68.40;;;;;;4983707;28;20062;-95
2021/03/25 12:05:23;;;;;;;9.40;1.10;;;15.90;68.20;;;;;;4985755;28;20132;-89
2021/03/25 12:08:17;;;;;;;2.60;0.90;;;16.10;67.80;;;;;;4982302;28;20122;-93
2021/03/25 12:10:43;;;;;;;5.75;1.13;;;16.20;67.40;;;;;;4980850;28;20465;-94
2021/03/25 12:13:11;;;;;;;5.18;0.90;;;16.40;67.00;;;;;;4978565;28;20023;-94
2021/03/25 12:15:36;;;;;;;7.32;1.15;;;16.50;65.40;;;;;;4977253;28;20029;-95
2021/03/25 12:18:07;;;;;;;6.40;0.82;;;16.30;65.00;;;;;;4976375;28;20019;-93
2021/03/25 12:20:38;;;;;;;6.43;0.98;;;16.40;65.50;;;;;;4985534;28;20042;-95
2021/03/25 12:23:28;;;;;;;3.78;0.98;;;16.50;65.10;;;;;;4976420;28;20045;-94
2021/03/25 12:25:57;;;;;;;3.75;0.80;;;16.60;64.80;;;;;;4978182;28;20054;-94
2021/03/25 12:28:24;;;;;;;5.07;0.75;;;16.70;64.50;;;;;;4975876;28;20078;-94
2021/03/25 12:30:50;;;;;;;2.92;0.60;;;16.90;64.50;;;;;;4977458;28;20097;-93
2021/03/25 12:33:20;;;;;;;3.05;0.98;;;17.00;64.20;;;;;;4976279;28;20038;-95
2021/03/25 12:35:46;;;;;;;2.63;0.80;;;17.40;63.90;;;;;;4982159;28;20073;-95
2021/03/25 12:38:12;;;;;;;6.65;1.27;;;17.70;63.40;;;;;;4979499;28;20679;-94
2021/03/25 12:40:38;;;;;;;2.15;0.90;;;18.00;62.10;;;;;;4985746;28;20023;-94
2021/03/25 12:43:04;;;;;;;4.20;0.93;;;18.20;61.10;;;;;;4993944;28;20043;-93
2021/03/25 12:45:37;;;;;;;5.88;1.40;;;18.20;60.10;;;;;;4997026;28;20057;-93
2021/03/25 12:48:03;;;;;;;4.50;0.90;;;18.10;59.70;;;;;;4998658;28;20027;-95
2021/03/25 12:50:30;;;;;;;2.25;1.02;;;17.90;59.60;;;;;;4998644;28;20014;-92
2021/03/25 12:52:57;;;;;;;3.97;1.10;;;17.70;60.40;;;;;;4997713;28;20023;-94
2021/03/25 12:55:23;;;;;;;5.97;1.10;;;17.70;61.20;;;;;;4985181;28;20481;-94
2021/03/25 12:57:53;;;;;;;4.60;1.02;;;17.70;60.90;;;;;;4983264;28;20066;-93
2021/03/25 13:00:27;;;;;;;2.88;0.90;;;17.90;60.60;;;;;;4986611;28;20015;-93
2021/03/25 13:02:55;;;;;;;9.02;1.10;;;18.00;59.80;;;;;;4988193;28;20039;-92
2021/03/25 13:05:21;;;;;;;6.10;1.90;;;18.20;58.40;;;;;;4990415;28;20019;-95
2021/03/25 13:07:52;;;;;;;0.90;0.75;;;18.10;58.10;;;;;;4989236;28;20022;-95
2021/03/25 13:10:28;;;;;;;7.25;1.10;;;18.30;58.70;;;;;;4974185;28;20520;-94
2021/03/25 13:12:59;;;;;;;7.07;1.05;;;18.50;58.50;;;;;;4986379;28;20062;-95
2021/03/25 13:15:25;;;;;;;3.20;0.77;;;18.80;58.50;;;;;;4974362;28;20042;-94
2021/03/25 13:17:52;;;;;;;2.35;0.88;;;19.00;57.70;;;;;;4985292;28;20030;-94
2021/03/25 13:20:31;;;;;;;3.03;0.60;;;19.00;57.50;;;;;;4994784;28;20019;-92
2021/03/25 13:22:58;;;;;;;2.92;0.80;;;19.10;55.80;;;;;;5008464;28;20114;-95
2021/03/25 13:25:33;;;;;;;2.78;0.73;;;18.90;54.70;;;;;;4991062;28;20026;-90
2021/03/25 13:28:05;;;;;;;5.47;0.90;;;18.60;55.30;;;;;;4975367;28;20142;-92
2021/03/25 13:30:31;;;;;;;3.65;1.20;;;18.70;56.00;;;;;;4970960;28;20031;-91
2021/03/25 13:33:00;;;;;;;4.05;1.27;;;18.90;55.30;;;;;;4973701;28;20086;-93